Time;durP1;ratioP1;P1;durP2;ratioP2;P2;SDS_P1;SDS_P2;PMS_P1;PMS_P2;Temp;Humidity;BMP_temperature;BMP_pressure;BME280_temperature;BME280_humidity;BME280_pressure;Samples;Min_cycle;Max_cycle;Signal;HPM_P1;HPM_P2
2023/05/07 00:01:52;;;;;;;30.70;12.27;;;;;;;;;;5071835;28;20031;-58
2023/05/07 00:04:18;;;;;;;32.55;12.43;;;;;;;;;;5071415;28;20079;-58
2023/05/07 00:06:44;;;;;;;31.85;12.43;;;;;;;;;;5071524;28;20165;-58
2023/05/07 00:09:10;;;;;;;36.67;13.38;;;;;;;;;;5071494;28;20013;-59
2023/05/07 00:11:36;;;;;;;33.13;11.93;;;;;;;;;;5071392;28;20485;-59
2023/05/07 00:14:02;;;;;;;37.28;12.07;;;;;;;;;;5071537;28;20469;-60
2023/05/07 00:16:28;;;;;;;39.35;12.48;;;;;;;;;;5071244;28;20027;-58
2023/05/07 00:18:54;;;;;;;33.10;12.30;;;;;;;;;;5071376;28;20134;-58
2023/05/07 00:21:21;;;;;;;31.52;12.43;;;;;;;;;;5071387;28;20025;-59
2023/05/07 00:23:47;;;;;;;34.45;11.98;;;;;;;;;;5071088;28;20016;-59
2023/05/07 00:26:13;;;;;;;26.65;11.45;;;;;;;;;;5071181;28;20035;-59
2023/05/07 00:28:39;;;;;;;36.38;12.00;;;;;;;;;;5070920;28;20016;-59
2023/05/07 00:31:05;;;;;;;40.47;14.13;;;;;;;;;;5071278;28;20036;-59
2023/05/07 00:33:31;;;;;;;32.75;12.65;;;;;;;;;;5071317;28;20069;-59
2023/05/07 00:35:57;;;;;;;30.08;12.38;;;;;;;;;;5071182;28;20116;-59
2023/05/07 00:38:23;;;;;;;25.88;12.35;;;;;;;;;;5070874;28;20104;-58
2023/05/07 00:40:51;;;;;;;34.80;14.20;;;;;;;;;;5071199;28;20384;-61
2023/05/07 00:43:17;;;;;;;37.28;12.98;;;;;;;;;;5071152;28;20481;-58
2023/05/07 00:45:43;;;;;;;47.33;14.82;;;;;;;;;;5071023;28;20038;-58
2023/05/07 00:48:09;;;;;;;44.80;15.27;;;;;;;;;;5071176;28;20056;-58
2023/05/07 00:50:35;;;;;;;44.30;13.23;;;;;;;;;;5070765;28;20059;-60
2023/05/07 00:53:02;;;;;;;46.42;14.82;;;;;;;;;;5071249;28;20067;-59
2023/05/07 00:55:28;;;;;;;41.97;15.65;;;;;;;;;;5071121;28;20083;-59
2023/05/07 00:57:54;;;;;;;49.78;14.55;;;;;;;;;;5070732;28;20052;-58
2023/05/07 01:00:20;;;;;;;42.00;14.40;;;;;;;;;;5070958;28;20427;-58
2023/05/07 01:02:47;;;;;;;52.95;14.35;;;;;;;;;;5071059;28;20020;-59
2023/05/07 01:05:15;;;;;;;46.40;15.65;;;;;;;;;;5072008;28;20066;-59
2023/05/07 01:07:41;;;;;;;55.55;17.67;;;;;;;;;;5074874;28;20029;-58
2023/05/07 01:10:08;;;;;;;41.05;16.25;;;;;;;;;;5074856;28;20074;-58
2023/05/07 01:12:35;;;;;;;49.72;18.08;;;;;;;;;;5074484;28;20503;-59
2023/05/07 01:15:02;;;;;;;53.35;16.67;;;;;;;;;;5074565;28;20032;-59
2023/05/07 01:17:28;;;;;;;47.05;17.02;;;;;;;;;;5074723;28;20032;-58
2023/05/07 01:19:54;;;;;;;45.10;18.00;;;;;;;;;;5074447;28;20025;-57
2023/05/07 01:22:31;;;;;;;45.15;16.38;;;;;;;;;;5074545;28;20104;-59
2023/05/07 01:24:59;;;;;;;54.47;18.45;;;;;;;;;;5074311;28;20500;-59
2023/05/07 01:27:25;;;;;;;52.40;17.25;;;;;;;;;;5074581;28;20400;-59
2023/05/07 01:29:51;;;;;;;54.72;18.40;;;;;;;;;;5074163;28;20068;-58
2023/05/07 01:32:19;;;;;;;53.55;18.15;;;;;;;;;;5074268;28;20373;-58
2023/05/07 01:34:46;;;;;;;55.03;18.15;;;;;;;;;;5074153;28;20024;-59
2023/05/07 01:37:12;;;;;;;52.03;18.17;;;;;;;;;;5074382;28;20031;-58
2023/05/07 01:39:39;;;;;;;47.30;18.08;;;;;;;;;;5074127;28;20466;-58
2023/05/07 01:42:06;;;;;;;50.38;19.02;;;;;;;;;;5073995;28;20441;-58
2023/05/07 01:44:33;;;;;;;54.17;19.38;;;;;;;;;;5074180;28;20036;-58
2023/05/07 01:46:59;;;;;;;53.10;19.65;;;;;;;;;;5074021;28;20108;-58
2023/05/07 01:49:25;;;;;;;51.53;13.85;;;;;;;;;;5073889;28;20221;-59
2023/05/07 01:51:52;;;;;;;52.58;15.88;;;;;;;;;;5073885;28;20056;-59
2023/05/07 01:54:18;;;;;;;61.35;18.63;;;;;;;;;;5073825;28;20025;-58
2023/05/07 01:56:44;;;;;;;47.45;13.15;;;;;;;;;;5073758;28;20025;-58
2023/05/07 01:59:10;;;;;;;44.40;14.90;;;;;;;;;;5073437;28;20025;-59
2023/05/07 02:01:36;;;;;;;54.75;18.15;;;;;;;;;;5073658;28;20107;-59
2023/05/07 02:04:02;;;;;;;58.22;18.38;;;;;;;;;;5072317;28;20363;-58
2023/05/07 02:06:28;;;;;;;51.45;16.10;;;;;;;;;;5073668;28;20182;-58
2023/05/07 02:08:54;;;;;;;43.33;13.57;;;;;;;;;;5073685;28;20035;-59
2023/05/07 02:11:20;;;;;;;43.63;14.13;;;;;;;;;;5073629;28;20069;-58
2023/05/07 02:13:46;;;;;;;37.38;12.80;;;;;;;;;;5073529;28;20039;-59
2023/05/07 02:16:14;;;;;;;41.55;13.48;;;;;;;;;;5072773;28;20021;-58
2023/05/07 02:18:40;;;;;;;43.45;14.82;;;;;;;;;;5073358;28;20082;-58
2023/05/07 02:21:06;;;;;;;45.28;13.43;;;;;;;;;;5073312;28;20024;-58
2023/05/07 02:23:32;;;;;;;43.83;13.90;;;;;;;;;;5073387;28;20029;-58
2023/05/07 02:25:58;;;;;;;41.10;12.95;;;;;;;;;;5073342;28;20485;-58
2023/05/07 02:28:24;;;;;;;51.03;13.27;;;;;;;;;;5072997;28;20078;-59
2023/05/07 02:30:50;;;;;;;39.97;11.55;;;;;;;;;;5073097;28;20400;-58
2023/05/07 02:33:16;;;;;;;36.97;11.85;;;;;;;;;;5073503;28;20032;-58
2023/05/07 02:35:42;;;;;;;43.70;13.02;;;;;;;;;;5073067;28;20016;-58
2023/05/07 02:38:10;;;;;;;34.45;11.70;;;;;;;;;;5073216;28;20036;-57
2023/05/07 02:40:39;;;;;;;34.50;12.57;;;;;;;;;;5073079;28;20354;-58
2023/05/07 02:43:05;;;;;;;34.65;11.02;;;;;;;;;;5072977;28;20099;-58
2023/05/07 02:45:32;;;;;;;49.85;13.55;;;;;;;;;;5072968;28;20040;-58
2023/05/07 02:47:58;;;;;;;40.33;10.70;;;;;;;;;;5073066;28;20016;-58
2023/05/07 02:50:25;;;;;;;44.67;9.32;;;;;;;;;;5072745;28;20492;-57
2023/05/07 02:52:51;;;;;;;70.22;9.45;;;;;;;;;;5072816;28;20021;-58
2023/05/07 02:55:17;;;;;;;43.05;8.35;;;;;;;;;;5072945;28;20105;-58
2023/05/07 02:57:43;;;;;;;64.82;10.10;;;;;;;;;;5072654;28;20106;-60
2023/05/07 03:00:13;;;;;;;65.43;8.93;;;;;;;;;;5072765;28;20501;-61
2023/05/07 03:02:39;;;;;;;51.42;9.52;;;;;;;;;;5072688;28;20035;-59
2023/05/07 03:05:05;;;;;;;66.47;9.50;;;;;;;;;;5072672;28;20499;-59
2023/05/07 03:07:31;;;;;;;61.13;10.07;;;;;;;;;;5072513;28;20040;-59
2023/05/07 03:09:57;;;;;;;46.95;6.03;;;;;;;;;;5072550;28;20027;-58
2023/05/07 03:12:24;;;;;;;20.25;6.65;;;;;;;;;;5072424;28;20103;-57
2023/05/07 03:14:50;;;;;;;100.15;11.40;;;;;;;;;;5071079;28;20024;-59
2023/05/07 03:17:16;;;;;;;31.83;4.78;;;;;;;;;;5072342;28;20751;-59
2023/05/07 03:19:42;;;;;;;56.70;5.80;;;;;;;;;;5072212;28;20016;-58
2023/05/07 03:22:08;;;;;;;35.38;5.18;;;;;;;;;;5072296;28;20059;-59
2023/05/07 03:24:34;;;;;;;102.50;7.55;;;;;;;;;;5072175;28;20788;-59
2023/05/07 03:27:01;;;;;;;145.50;8.63;;;;;;;;;;5072086;28;20055;-58
2023/05/07 03:29:27;;;;;;;76.25;6.47;;;;;;;;;;5071885;28;20180;-58
2023/05/07 03:31:53;;;;;;;44.42;5.95;;;;;;;;;;5071969;28;20028;-58
2023/05/07 03:34:21;;;;;;;40.20;7.15;;;;;;;;;;5071960;28;20518;-58
2023/05/07 03:36:48;;;;;;;83.82;10.68;;;;;;;;;;5071764;28;20025;-59
2023/05/07 03:39:15;;;;;;;119.28;9.15;;;;;;;;;;5071997;28;20024;-57
2023/05/07 03:41:41;;;;;;;67.43;7.40;;;;;;;;;;5071935;28;20032;-58
2023/05/07 03:44:07;;;;;;;97.50;7.13;;;;;;;;;;5071617;28;20635;-59
2023/05/07 03:46:34;;;;;;;115.20;7.22;;;;;;;;;;5071812;28;20040;-59
2023/05/07 03:49:00;;;;;;;106.57;6.38;;;;;;;;;;5071855;28;20097;-57
2023/05/07 03:51:26;;;;;;;207.18;13.00;;;;;;;;;;5071745;28;20021;-58
2023/05/07 03:53:52;;;;;;;106.88;8.35;;;;;;;;;;5071773;28;20043;-58
2023/05/07 03:56:19;;;;;;;73.97;7.10;;;;;;;;;;5071517;28;20100;-57
2023/05/07 03:58:45;;;;;;;81.78;6.57;;;;;;;;;;5071713;28;20055;-59
2023/05/07 04:01:11;;;;;;;81.15;7.10;;;;;;;;;;5071677;28;20108;-58
2023/05/07 04:03:38;;;;;;;106.97;7.68;;;;;;;;;;5072027;28;20469;-58
2023/05/07 04:06:04;;;;;;;93.60;9.18;;;;;;;;;;5071654;28;20032;-59
2023/05/07 04:08:30;;;;;;;135.95;8.23;;;;;;;;;;5071602;28;20462;-58
2023/05/07 04:10:59;;;;;;;90.22;6.03;;;;;;;;;;5071476;28;20035;-59
2023/05/07 04:13:26;;;;;;;142.40;11.50;;;;;;;;;;5071595;28;20024;-59
2023/05/07 04:15:52;;;;;;;119.40;7.20;;;;;;;;;;5071317;28;20026;-58
2023/05/07 04:18:18;;;;;;;98.28;9.57;;;;;;;;;;5071342;28;20021;-58
2023/05/07 04:20:44;;;;;;;114.20;9.00;;;;;;;;;;5071165;28;20044;-60
2023/05/07 04:23:11;;;;;;;153.05;9.77;;;;;;;;;;5071286;28;20028;-59
2023/05/07 04:25:37;;;;;;;123.00;11.30;;;;;;;;;;5071187;28;20031;-58
2023/05/07 04:28:03;;;;;;;103.70;7.07;;;;;;;;;;5071317;28;20025;-60
2023/05/07 04:30:29;;;;;;;87.20;6.82;;;;;;;;;;5070889;28;20036;-59
2023/05/07 04:32:55;;;;;;;74.40;4.55;;;;;;;;;;5071002;28;20020;-60
2023/05/07 04:35:22;;;;;;;79.78;4.25;;;;;;;;;;5071097;28;20035;-58
2023/05/07 04:37:48;;;;;;;67.28;5.10;;;;;;;;;;5070951;28;20031;-57
2023/05/07 04:40:14;;;;;;;58.72;4.50;;;;;;;;;;5069266;28;20032;-60
2023/05/07 04:42:40;;;;;;;180.80;7.88;;;;;;;;;;5071010;28;20081;-59
2023/05/07 04:45:06;;;;;;;95.47;6.70;;;;;;;;;;5071005;28;20597;-58
2023/05/07 04:47:32;;;;;;;86.35;6.85;;;;;;;;;;5071153;28;20047;-56
2023/05/07 04:49:58;;;;;;;94.50;7.70;;;;;;;;;;5071037;28;20051;-58
2023/05/07 04:52:24;;;;;;;136.48;8.23;;;;;;;;;;5070840;28;20081;-59
2023/05/07 04:54:50;;;;;;;50.63;5.38;;;;;;;;;;5071149;28;20028;-59
2023/05/07 04:57:17;;;;;;;20.02;3.72;;;;;;;;;;5070919;28;20028;-56
2023/05/07 04:59:43;;;;;;;145.48;10.07;;;;;;;;;;5071056;28;20109;-57
2023/05/07 05:02:10;;;;;;;69.50;4.70;;;;;;;;;;5069295;28;20020;-57
2023/05/07 05:04:37;;;;;;;168.20;10.55;;;;;;;;;;5070867;28;20031;-58
2023/05/07 05:07:03;;;;;;;66.93;5.28;;;;;;;;;;5070839;28;20056;-57
2023/05/07 05:09:30;;;;;;;64.22;5.90;;;;;;;;;;5070698;28;20052;-57
2023/05/07 05:11:56;;;;;;;80.55;6.53;;;;;;;;;;5070916;28;20036;-58
2023/05/07 05:14:22;;;;;;;180.50;9.45;;;;;;;;;;5070584;28;20059;-58
2023/05/07 05:16:48;;;;;;;132.27;7.28;;;;;;;;;;5070855;28;20033;-58
2023/05/07 05:19:14;;;;;;;83.45;5.07;;;;;;;;;;5070769;28;20044;-57
2023/05/07 05:21:40;;;;;;;134.70;8.27;;;;;;;;;;5069263;28;20044;-58
2023/05/07 05:24:06;;;;;;;113.97;8.55;;;;;;;;;;5070515;28;20458;-59
2023/05/07 05:26:32;;;;;;;69.78;7.07;;;;;;;;;;5070662;28;20032;-58
2023/05/07 05:28:58;;;;;;;120.53;9.00;;;;;;;;;;5070347;28;20049;-57
2023/05/07 05:31:24;;;;;;;92.10;9.82;;;;;;;;;;5070495;28;20029;-58
2023/05/07 05:33:50;;;;;;;48.03;7.38;;;;;;;;;;5069153;28;20021;-58
2023/05/07 05:36:17;;;;;;;202.80;12.70;;;;;;;;;;5070114;28;20028;-58
2023/05/07 05:38:44;;;;;;;83.47;8.10;;;;;;;;;;5070643;28;20614;-57
2023/05/07 05:41:10;;;;;;;25.70;5.80;;;;;;;;;;5070599;28;20024;-57
2023/05/07 05:43:36;;;;;;;94.13;9.32;;;;;;;;;;5070484;28;20662;-57
2023/05/07 05:46:04;;;;;;;24.23;6.07;;;;;;;;;;5070271;28;20044;-59
2023/05/07 05:48:30;;;;;;;95.88;9.43;;;;;;;;;;5070146;28;20569;-59
2023/05/07 05:50:56;;;;;;;22.00;7.82;;;;;;;;;;5071120;28;20028;-59
2023/05/07 05:53:22;;;;;;;20.17;7.00;;;;;;;;;;5074245;28;20055;-59
2023/05/07 05:55:48;;;;;;;29.35;6.38;;;;;;;;;;5073869;28;20025;-57
2023/05/07 05:58:15;;;;;;;28.52;7.47;;;;;;;;;;5073552;28;20020;-59
2023/05/07 06:00:41;;;;;;;26.88;7.03;;;;;;;;;;5073838;28;20480;-59
2023/05/07 06:03:07;;;;;;;27.67;7.70;;;;;;;;;;5072489;28;20020;-58
2023/05/07 06:05:33;;;;;;;28.13;6.90;;;;;;;;;;5073859;28;20028;-58
2023/05/07 06:07:59;;;;;;;41.72;7.72;;;;;;;;;;5073822;28;20028;-59
2023/05/07 06:10:26;;;;;;;53.17;8.55;;;;;;;;;;5073113;28;20036;-59
2023/05/07 06:12:53;;;;;;;110.57;9.05;;;;;;;;;;5073554;28;20020;-60
2023/05/07 06:15:19;;;;;;;49.22;7.55;;;;;;;;;;5073546;28;20115;-59
2023/05/07 06:17:45;;;;;;;18.92;7.18;;;;;;;;;;5072152;28;20067;-59
2023/05/07 06:20:11;;;;;;;15.13;6.38;;;;;;;;;;5073357;28;20024;-58
2023/05/07 06:22:37;;;;;;;16.50;6.53;;;;;;;;;;5073115;28;20079;-60
2023/05/07 06:25:03;;;;;;;18.65;6.75;;;;;;;;;;5073329;28;20500;-60
2023/05/07 06:27:29;;;;;;;33.50;9.85;;;;;;;;;;5073164;28;20385;-59
2023/05/07 06:29:55;;;;;;;37.92;9.15;;;;;;;;;;5073102;28;20123;-58
2023/05/07 06:32:21;;;;;;;43.08;9.93;;;;;;;;;;5071850;28;20054;-59
2023/05/07 06:34:47;;;;;;;27.95;8.52;;;;;;;;;;5072883;28;20021;-59
2023/05/07 06:37:13;;;;;;;25.25;8.68;;;;;;;;;;5073187;28;20024;-59
2023/05/07 06:39:39;;;;;;;34.78;9.73;;;;;;;;;;5073180;28;20025;-60
2023/05/07 06:42:05;;;;;;;29.55;10.52;;;;;;;;;;5071637;28;20398;-60
2023/05/07 06:44:32;;;;;;;31.77;10.18;;;;;;;;;;5073001;28;20534;-59
2023/05/07 06:46:58;;;;;;;42.00;9.10;;;;;;;;;;5071491;28;20432;-59
2023/05/07 06:49:24;;;;;;;22.58;9.88;;;;;;;;;;5072923;28;20016;-59
2023/05/07 06:51:50;;;;;;;23.20;9.73;;;;;;;;;;5069028;28;20081;-59
2023/05/07 06:54:16;;;;;;;23.65;9.70;;;;;;;;;;5071059;28;20032;-59
2023/05/07 06:56:42;;;;;;;29.13;10.75;;;;;;;;;;5072647;28;20414;-59
2023/05/07 06:59:08;;;;;;;28.08;11.63;;;;;;;;;;5072495;28;20158;-61
2023/05/07 07:01:35;;;;;;;27.25;10.55;;;;;;;;;;5069759;28;20028;-59
2023/05/07 07:04:01;;;;;;;31.05;10.70;;;;;;;;;;5071968;28;20488;-60
2023/05/07 07:06:27;;;;;;;25.58;10.48;;;;;;;;;;5069866;28;20083;-60
2023/05/07 07:08:53;;;;;;;23.20;10.18;;;;;;;;;;5065962;28;20021;-60
2023/05/07 07:11:19;;;;;;;25.33;10.23;;;;;;;;;;5070830;28;20119;-60
2023/05/07 07:13:45;;;;;;;29.20;11.30;;;;;;;;;;5087805;28;20048;-60
2023/05/07 07:16:11;;;;;;;25.58;11.00;;;;;;;;;;5072319;28;20606;-60
2023/05/07 07:18:37;;;;;;;21.73;10.57;;;;;;;;;;5070733;28;20029;-60
2023/05/07 07:21:03;;;;;;;25.52;10.38;;;;;;;;;;5071543;28;20363;-61
2023/05/07 07:23:29;;;;;;;20.27;10.40;;;;;;;;;;5064515;28;20017;-60
2023/05/07 07:25:55;;;;;;;22.77;10.10;;;;;;;;;;5062060;28;20040;-60
2023/05/07 07:28:22;;;;;;;19.45;9.35;;;;;;;;;;5059816;28;20593;-59
2023/05/07 07:30:48;;;;;;;20.25;10.07;;;;;;;;;;5069390;28;20044;-59
2023/05/07 07:33:14;;;;;;;21.30;9.63;;;;;;;;;;5071622;28;20024;-60
2023/05/07 07:35:40;;;;;;;20.08;9.65;;;;;;;;;;5071401;28;20037;-61
2023/05/07 07:38:06;;;;;;;19.42;10.18;;;;;;;;;;5071921;28;20082;-60
2023/05/07 07:40:34;;;;;;;16.30;8.50;;;;;;;;;;5070055;28;20025;-60
2023/05/07 07:43:01;;;;;;;17.10;8.90;;;;;;;;;;5052418;28;20029;-59
2023/05/07 07:45:27;;;;;;;16.08;7.88;;;;;;;;;;5071346;28;20503;-60
2023/05/07 07:47:53;;;;;;;14.55;7.30;;;;;;;;;;5071797;28;20082;-60
2023/05/07 07:50:19;;;;;;;16.42;8.35;;;;;;;;;;5071945;28;20074;-60
2023/05/07 07:52:45;;;;;;;16.30;8.02;;;;;;;;;;5069530;28;20479;-60
2023/05/07 07:55:12;;;;;;;14.60;8.40;;;;;;;;;;5070639;28;20098;-60
2023/05/07 07:57:38;;;;;;;14.65;7.72;;;;;;;;;;5051737;28;20024;-61
2023/05/07 08:00:06;;;;;;;13.95;7.10;;;;;;;;;;5064238;28;20020;-59
2023/05/07 08:02:33;;;;;;;15.25;8.52;;;;;;;;;;5071048;28;20052;-59
2023/05/07 08:04:59;;;;;;;12.95;7.13;;;;;;;;;;5070882;28;20024;-60
2023/05/07 08:07:25;;;;;;;15.73;8.18;;;;;;;;;;5068803;28;20144;-60
2023/05/07 08:09:51;;;;;;;16.80;8.68;;;;;;;;;;5070264;28;20017;-59
2023/05/07 08:12:17;;;;;;;14.52;7.65;;;;;;;;;;5071112;28;20537;-59
2023/05/07 08:14:43;;;;;;;17.40;8.13;;;;;;;;;;5069007;28;20025;-59
2023/05/07 08:17:10;;;;;;;15.43;7.88;;;;;;;;;;5071277;28;20164;-60
2023/05/07 08:19:36;;;;;;;15.25;7.88;;;;;;;;;;5070095;28;20056;-59
2023/05/07 08:22:04;;;;;;;17.17;8.52;;;;;;;;;;5071188;28;20078;-60
2023/05/07 08:24:30;;;;;;;19.75;8.20;;;;;;;;;;5070754;28;20020;-60
2023/05/07 08:26:56;;;;;;;27.20;9.30;;;;;;;;;;5069237;28;20488;-60
2023/05/07 08:29:22;;;;;;;17.67;7.70;;;;;;;;;;5070792;28;20132;-60
2023/05/07 08:31:48;;;;;;;14.77;7.50;;;;;;;;;;5070978;28;20052;-60
2023/05/07 08:34:14;;;;;;;11.40;6.80;;;;;;;;;;5069805;28;20028;-60
2023/05/07 08:36:41;;;;;;;11.95;6.28;;;;;;;;;;5071177;28;20048;-60
2023/05/07 08:39:07;;;;;;;10.60;5.90;;;;;;;;;;5062124;28;20025;-61
2023/05/07 08:41:34;;;;;;;10.60;5.78;;;;;;;;;;5055512;28;20044;-60
2023/05/07 08:44:04;;;;;;;10.88;6.32;;;;;;;;;;5066625;28;20028;-60
2023/05/07 08:46:32;;;;;;;11.25;6.35;;;;;;;;;;5066789;28;20450;-59
2023/05/07 08:48:58;;;;;;;10.65;6.85;;;;;;;;;;5057858;28;20086;-58
2023/05/07 08:51:24;;;;;;;11.93;6.60;;;;;;;;;;5070474;28;20048;-60
2023/05/07 08:53:50;;;;;;;11.35;5.90;;;;;;;;;;5067415;28;20024;-60
2023/05/07 08:56:17;;;;;;;9.38;5.70;;;;;;;;;;5070891;28;20032;-60
2023/05/07 08:58:43;;;;;;;10.98;5.88;;;;;;;;;;5070229;28;20368;-60
2023/05/07 09:01:10;;;;;;;10.55;6.10;;;;;;;;;;5069715;28;20029;-62
2023/05/07 09:03:40;;;;;;;9.13;5.82;;;;;;;;;;5070506;28;20020;-61
2023/05/07 09:06:07;;;;;;;8.73;5.45;;;;;;;;;;5068707;28;20083;-60
2023/05/07 09:08:33;;;;;;;9.30;5.72;;;;;;;;;;5069669;28;20029;-59
2023/05/07 09:10:59;;;;;;;8.45;5.80;;;;;;;;;;5068645;28;20021;-60
2023/05/07 09:13:26;;;;;;;8.98;5.60;;;;;;;;;;5070648;28;20033;-60
2023/05/07 09:15:52;;;;;;;11.13;5.22;;;;;;;;;;5070181;28;20416;-59
2023/05/07 09:18:18;;;;;;;9.25;5.45;;;;;;;;;;5071097;28;20375;-60
2023/05/07 09:20:44;;;;;;;7.60;5.53;;;;;;;;;;5066981;28;20477;-59
2023/05/07 09:23:10;;;;;;;8.27;5.15;;;;;;;;;;5069494;28;20078;-61
2023/05/07 09:25:37;;;;;;;9.20;5.93;;;;;;;;;;5070524;28;20029;-59
2023/05/07 09:28:03;;;;;;;9.05;5.40;;;;;;;;;;5071668;28;20082;-59
2023/05/07 09:30:30;;;;;;;7.20;4.93;;;;;;;;;;5070863;28;20051;-59
2023/05/07 09:32:56;;;;;;;8.80;5.60;;;;;;;;;;5073559;28;20028;-58
2023/05/07 09:35:26;;;;;;;8.02;5.13;;;;;;;;;;5063279;28;20078;-60
2023/05/07 09:37:53;;;;;;;7.30;5.47;;;;;;;;;;5073540;28;20021;-61
2023/05/07 09:40:26;;;;;;;9.55;4.82;;;;;;;;;;5074370;28;20025;-60
2023/05/07 09:42:52;;;;;;;8.90;4.68;;;;;;;;;;5072328;28;20013;-60
2023/05/07 09:45:28;;;;;;;7.28;5.03;;;;;;;;;;5072672;28;20040;-60
2023/05/07 09:47:55;;;;;;;9.00;4.85;;;;;;;;;;5072755;28;20541;-59
2023/05/07 09:50:24;;;;;;;7.20;4.90;;;;;;;;;;5073805;28;20024;-61
2023/05/07 09:52:50;;;;;;;7.45;4.72;;;;;;;;;;5073049;28;20036;-61
2023/05/07 09:55:17;;;;;;;7.07;4.78;;;;;;;;;;5071844;28;20016;-60
2023/05/07 09:57:43;;;;;;;5.65;4.35;;;;;;;;;;5070704;28;20534;-59
2023/05/07 10:00:10;;;;;;;6.50;4.97;;;;;;;;;;5068529;28;20081;-60
2023/05/07 10:02:37;;;;;;;6.95;4.70;;;;;;;;;;5072010;28;20035;-61
2023/05/07 10:05:03;;;;;;;6.25;4.75;;;;;;;;;;5073180;28;20025;-62
2023/05/07 10:07:29;;;;;;;5.95;4.30;;;;;;;;;;5073748;28;20401;-62
2023/05/07 10:09:56;;;;;;;6.03;4.70;;;;;;;;;;5072325;28;20037;-60
2023/05/07 10:12:22;;;;;;;5.93;4.10;;;;;;;;;;5073457;28;20112;-61
2023/05/07 10:14:49;;;;;;;5.07;3.90;;;;;;;;;;5071361;28;20028;-61
2023/05/07 10:17:17;;;;;;;4.63;3.95;;;;;;;;;;5073174;28;20029;-60
2023/05/07 10:19:45;;;;;;;4.60;3.55;;;;;;;;;;5073437;28;20086;-61
2023/05/07 10:22:11;;;;;;;4.20;3.38;;;;;;;;;;5073660;28;20096;-61
2023/05/07 10:24:38;;;;;;;4.82;3.80;;;;;;;;;;5073256;28;20028;-62
2023/05/07 10:27:10;;;;;;;4.13;3.60;;;;;;;;;;5072194;28;20040;-61
2023/05/07 10:29:35;;;;;;;;;;;;;;;;;;5073387;28;20060;-61
2023/05/07 10:32:04;;;;;;;4.63;3.42;;;;;;;;;;5071433;28;19904;-62
2023/05/07 10:34:35;;;;;;;5.45;3.63;;;;;;;;;;5071608;28;20104;-61
2023/05/07 10:37:01;;;;;;;5.60;4.70;;;;;;;;;;5070627;28;20028;-60
2023/05/07 10:39:27;;;;;;;6.63;4.72;;;;;;;;;;5071446;28;20052;-62
2023/05/07 10:41:53;;;;;;;5.30;4.47;;;;;;;;;;5071375;28;20024;-62
2023/05/07 10:44:29;;;;;;;5.70;4.25;;;;;;;;;;5070196;28;20028;-60
2023/05/07 10:47:09;;;;;;;7.35;4.90;;;;;;;;;;5072595;28;20028;-60
2023/05/07 10:49:55;;;;;;;6.63;4.88;;;;;;;;;;5072925;28;20040;-61
2023/05/07 10:52:30;;;;;;;4.60;3.70;;;;;;;;;;5065620;28;20533;-61
2023/05/07 10:55:22;;;;;;;5.15;4.38;;;;;;;;;;5072707;28;20107;-62
2023/05/07 10:57:48;;;;;;;;;;;;;;;;;;5068479;28;20040;-62
2023/05/07 11:00:14;;;;;;;7.35;5.07;;;;;;;;;;5072625;28;19911;-61
2023/05/07 11:02:59;;;;;;;6.68;4.63;;;;;;;;;;5071202;28;20095;-60
2023/05/07 11:05:25;;;;;;;6.80;5.53;;;;;;;;;;5072428;28;20074;-62
2023/05/07 11:08:01;;;;;;;5.68;4.45;;;;;;;;;;5072455;28;20508;-60
2023/05/07 11:10:46;;;;;;;5.68;4.03;;;;;;;;;;5072159;28;20028;-62
2023/05/07 11:13:12;;;;;;;5.90;3.85;;;;;;;;;;5072418;28;20031;-62
2023/05/07 11:15:41;;;;;;;5.20;4.05;;;;;;;;;;5072392;28;20028;-61
2023/05/07 11:18:08;;;;;;;5.70;4.70;;;;;;;;;;5070847;28;20126;-61
2023/05/07 11:20:52;;;;;;;6.53;4.32;;;;;;;;;;5072078;28;20423;-61
2023/05/07 11:23:37;;;;;;;6.25;5.13;;;;;;;;;;5071883;28;20020;-62
2023/05/07 11:26:04;;;;;;;7.53;5.72;;;;;;;;;;5072020;28;20043;-63
2023/05/07 11:28:30;;;;;;;6.95;5.00;;;;;;;;;;5072312;28;20024;-61
2023/05/07 11:30:57;;;;;;;4.53;4.05;;;;;;;;;;5071777;28;20128;-64
2023/05/07 11:33:27;;;;;;;5.03;3.60;;;;;;;;;;5070854;28;20359;-63
2023/05/07 11:35:54;;;;;;;16.08;5.30;;;;;;;;;;5052077;28;20013;-61
2023/05/07 11:38:20;;;;;;;5.80;4.20;;;;;;;;;;5052191;28;20090;-63
2023/05/07 11:40:53;;;;;;;5.65;4.10;;;;;;;;;;5051893;28;20493;-61
2023/05/07 11:43:20;;;;;;;4.13;3.63;;;;;;;;;;5051829;28;20033;-61
2023/05/07 11:45:46;;;;;;;5.40;4.25;;;;;;;;;;5051739;28;20529;-60
2023/05/07 11:48:16;;;;;;;5.18;4.05;;;;;;;;;;5059799;28;20039;-60
2023/05/07 11:51:13;;;;;;;4.93;4.18;;;;;;;;;;5071526;28;20031;-61
2023/05/07 11:53:40;;;;;;;4.90;3.90;;;;;;;;;;5063514;28;20036;-61
2023/05/07 11:56:11;;;;;;;4.88;3.53;;;;;;;;;;5071467;28;20068;-62
2023/05/07 11:58:37;;;;;;;3.65;3.10;;;;;;;;;;5070377;28;20024;-61
2023/05/07 12:01:03;;;;;;;5.75;3.95;;;;;;;;;;5071665;28;20032;-61
2023/05/07 12:03:29;;;;;;;8.30;4.57;;;;;;;;;;5070386;28;20073;-60
2023/05/07 12:05:55;;;;;;;6.00;4.50;;;;;;;;;;5071624;28;20134;-61
2023/05/07 12:08:22;;;;;;;6.55;4.60;;;;;;;;;;5071358;28;20063;-63
2023/05/07 12:10:49;;;;;;;6.18;4.50;;;;;;;;;;5071367;28;20031;-62
2023/05/07 12:13:16;;;;;;;7.68;5.55;;;;;;;;;;5071502;28;20027;-62
2023/05/07 12:15:42;;;;;;;9.15;6.22;;;;;;;;;;5070021;28;20408;-61
2023/05/07 12:18:08;;;;;;;11.32;7.65;;;;;;;;;;5071407;28;20029;-60
2023/05/07 12:20:35;;;;;;;10.85;7.22;;;;;;;;;;5069840;28;20071;-61
2023/05/07 12:23:02;;;;;;;10.38;6.85;;;;;;;;;;5071190;28;20036;-61
2023/05/07 12:25:31;;;;;;;11.43;6.85;;;;;;;;;;5071351;28;20117;-61
2023/05/07 12:27:58;;;;;;;14.13;6.40;;;;;;;;;;5071228;28;20035;-61
2023/05/07 12:30:24;;;;;;;12.23;7.25;;;;;;;;;;5070961;28;20064;-61
2023/05/07 12:32:59;;;;;;;12.52;7.32;;;;;;;;;;5070876;28;20024;-61
2023/05/07 12:35:32;;;;;;;14.43;8.13;;;;;;;;;;5071252;28;20025;-60
2023/05/07 12:38:03;;;;;;;13.27;7.97;;;;;;;;;;5069946;28;20481;-62
2023/05/07 12:40:37;;;;;;;12.85;7.80;;;;;;;;;;5069822;28;20017;-60
2023/05/07 12:43:03;;;;;;;16.50;8.05;;;;;;;;;;5066576;28;20029;-59
2023/05/07 12:45:29;;;;;;;12.48;7.72;;;;;;;;;;5063862;28;20039;-61
2023/05/07 12:47:55;;;;;;;12.70;7.85;;;;;;;;;;5055151;28;20021;-60
2023/05/07 12:50:21;;;;;;;22.05;11.43;;;;;;;;;;5057136;28;20021;-61
2023/05/07 12:52:48;;;;;;;16.35;8.23;;;;;;;;;;5069267;28;20120;-61
2023/05/07 12:55:15;;;;;;;15.07;8.07;;;;;;;;;;5068157;28;20461;-61
2023/05/07 12:57:48;;;;;;;15.70;8.88;;;;;;;;;;5070527;28;20081;-60
2023/05/07 13:00:15;;;;;;;20.40;9.02;;;;;;;;;;5071865;28;20388;-60
2023/05/07 13:02:44;;;;;;;15.05;7.60;;;;;;;;;;5072723;28;20024;-62
2023/05/07 13:05:10;;;;;;;14.75;8.45;;;;;;;;;;5073876;28;20035;-64
2023/05/07 13:07:37;;;;;;;12.07;6.75;;;;;;;;;;5074327;28;20051;-62
2023/05/07 13:10:03;;;;;;;20.20;9.38;;;;;;;;;;5074861;28;20024;-64
2023/05/07 13:12:30;;;;;;;18.60;8.98;;;;;;;;;;5072594;28;20036;-63
2023/05/07 13:14:56;;;;;;;15.82;8.93;;;;;;;;;;5074714;28;20024;-61
2023/05/07 13:17:22;;;;;;;23.23;11.23;;;;;;;;;;5060166;28;20029;-64
2023/05/07 13:19:48;;;;;;;20.30;9.18;;;;;;;;;;5058061;28;20661;-64
2023/05/07 13:22:14;;;;;;;21.15;11.10;;;;;;;;;;5074582;28;20033;-63
2023/05/07 13:24:42;;;;;;;17.00;9.88;;;;;;;;;;5074494;28;20031;-60
2023/05/07 13:27:08;;;;;;;19.83;10.18;;;;;;;;;;5071243;28;20048;-62
2023/05/07 13:29:34;;;;;;;16.17;8.18;;;;;;;;;;5074001;28;20082;-62
2023/05/07 13:32:00;;;;;;;16.48;8.88;;;;;;;;;;5074359;28;20051;-60
2023/05/07 13:34:26;;;;;;;17.00;9.43;;;;;;;;;;5074293;28;20032;-60
2023/05/07 13:36:52;;;;;;;23.23;10.80;;;;;;;;;;5072557;28;20035;-62
2023/05/07 13:39:18;;;;;;;19.83;10.70;;;;;;;;;;5073948;28;20104;-60
2023/05/07 13:41:44;;;;;;;18.90;9.63;;;;;;;;;;5063300;28;20028;-61
2023/05/07 13:44:11;;;;;;;17.83;9.93;;;;;;;;;;5066998;28;20036;-62
2023/05/07 13:46:37;;;;;;;19.65;10.57;;;;;;;;;;5073747;28;20087;-61
2023/05/07 13:49:03;;;;;;;22.02;12.15;;;;;;;;;;5072055;28;20695;-62
2023/05/07 13:51:29;;;;;;;19.17;10.10;;;;;;;;;;5071574;28;20032;-63
2023/05/07 13:53:55;;;;;;;19.73;10.55;;;;;;;;;;5068270;28;20024;-63
2023/05/07 13:56:21;;;;;;;23.63;11.50;;;;;;;;;;5060875;28;20056;-65
2023/05/07 13:58:47;;;;;;;23.02;11.02;;;;;;;;;;5067637;28;20123;-65
2023/05/07 14:01:13;;;;;;;24.48;12.55;;;;;;;;;;5073798;28;20071;-62
2023/05/07 14:03:39;;;;;;;19.92;11.52;;;;;;;;;;5066048;28;20021;-61
2023/05/07 14:06:06;;;;;;;19.50;10.80;;;;;;;;;;5057088;28;20068;-60
2023/05/07 14:08:32;;;;;;;20.48;11.15;;;;;;;;;;5064703;28;20102;-63
2023/05/07 14:10:58;;;;;;;20.55;10.73;;;;;;;;;;5072098;28;20025;-63
2023/05/07 14:13:25;;;;;;;21.42;10.25;;;;;;;;;;5071706;28;20017;-63
2023/05/07 14:15:51;;;;;;;22.75;11.38;;;;;;;;;;5073110;28;20497;-63
2023/05/07 14:18:17;;;;;;;22.52;11.68;;;;;;;;;;5073372;28;20025;-63
2023/05/07 14:20:45;;;;;;;20.38;10.23;;;;;;;;;;5073343;28;20447;-63
2023/05/07 14:23:11;;;;;;;22.58;11.35;;;;;;;;;;5072293;28;20025;-63
2023/05/07 14:25:38;;;;;;;20.95;12.00;;;;;;;;;;5067581;28;20409;-61
2023/05/07 14:28:05;;;;;;;18.25;10.85;;;;;;;;;;5068966;28;20037;-60